Artesia, Mississippi
Current Conditions -  °F | °C
As of 6:50 AM on Saturday 20 Dec 2014 (Local Time) from KGTR Reporting Station
Haze Haze  
Wind Chill: 32°   Ceiling: Unl
Heat Index: 36°   Visibility: 5mi
Dew Point: 32°   Wind: 5mph
Humidity: 87%   Direction: 310°NW
Pressure: 30.22"   Gusts: NA
Location:  33.42°N, 88.64°W
Report Text: KGTR 201250Z 31004KT 5SM BR SKC 02/00 A3022
Loading
Personal Weather Stations






























Interactive Weather Map New forecast layout! Learn more

10-Day Weather Forecast

Advertisements
Track Severe Weather on mobile